Time;durP1;ratioP1;P1;durP2;ratioP2;P2;SDS_P1;SDS_P2;PMS_P1;PMS_P2;Temp;Humidity;BMP_temperature;BMP_pressure;BME280_temperature;BME280_humidity;BME280_pressure;Samples;Min_cycle;Max_cycle;Signal;HPM_P1;HPM_P2
2023/01/27 00:02:23;;;;;;;25.63;14.83;;;1.40;99.90;;;;;;10352800;28;20224;-69
2023/01/27 00:07:23;;;;;;;23.97;14.63;;;1.50;99.90;;;;;;10351990;28;20360;-68
2023/01/27 00:17:44;;;;;;;22.83;14.37;;;1.60;99.90;;;;;;10351477;28;20262;-69
2023/01/27 00:28:04;;;;;;;23.13;13.97;;;1.60;99.90;;;;;;10350732;28;20229;-69
2023/01/27 00:38:28;;;;;;;23.53;14.93;;;1.60;99.90;;;;;;10345629;28;20218;-67
2023/01/27 00:43:28;;;;;;;23.40;14.00;;;1.60;99.90;;;;;;10348934;28;20229;-69
2023/01/27 00:48:29;;;;;;;21.37;13.20;;;1.60;99.90;;;;;;10348302;28;20213;-69
2023/01/27 00:53:30;;;;;;;22.40;13.53;;;1.70;99.90;;;;;;10354009;28;20214;-69
2023/01/27 00:58:31;;;;;;;21.47;14.30;;;1.70;99.90;;;;;;10362511;28;20296;-68
2023/01/27 01:03:34;;;;;;;22.50;13.33;;;1.70;99.90;;;;;;10356973;28;20300;-67
2023/01/27 01:08:36;;;;;;;24.00;14.17;;;1.70;99.90;;;;;;10361262;28;20221;-67
2023/01/27 01:13:36;;;;;;;23.07;13.83;;;1.70;99.90;;;;;;10343951;28;20272;-69
2023/01/27 01:18:37;;;;;;;21.90;13.73;;;1.70;99.90;;;;;;10349828;28;20213;-67
2023/01/27 01:23:40;;;;;;;24.50;14.10;;;1.70;99.90;;;;;;10360610;28;20248;-67
2023/01/27 01:28:45;;;;;;;23.47;13.77;;;1.70;99.90;;;;;;10359632;28;20249;-68
2023/01/27 01:33:47;;;;;;;21.33;13.03;;;1.70;99.90;;;;;;10363395;28;20235;-68
2023/01/27 01:38:48;;;;;;;22.93;14.23;;;1.70;99.90;;;;;;10359996;28;20308;-67
2023/01/27 01:43:49;;;;;;;24.63;13.47;;;1.80;99.90;;;;;;10363017;28;20675;-68
2023/01/27 01:48:57;;;;;;;27.27;16.13;;;1.70;99.90;;;;;;10358128;28;20232;-67
2023/01/27 01:54:06;;;;;;;27.10;16.20;;;1.80;99.90;;;;;;10361008;28;20213;-67
2023/01/27 01:59:15;;;;;;;23.00;14.03;;;1.80;99.90;;;;;;10355289;28;20272;-67
2023/01/27 02:04:22;;;;;;;21.10;13.20;;;1.80;99.90;;;;;;10355580;28;20225;-70
2023/01/27 02:09:23;;;;;;;18.27;12.30;;;1.80;99.90;;;;;;10370444;28;20228;-69
2023/01/27 02:14:24;;;;;;;19.13;11.93;;;1.80;99.90;;;;;;10358138;28;20218;-69
2023/01/27 02:19:57;;;;;;;17.87;11.80;;;1.80;99.90;;;;;;10350517;28;20228;-70
2023/01/27 02:25:05;;;;;;;19.73;12.63;;;1.80;99.90;;;;;;10346381;28;20309;-70
2023/01/27 02:30:07;;;;;;;20.13;12.73;;;1.80;99.90;;;;;;10355122;28;20321;-70
2023/01/27 02:35:12;;;;;;;23.20;13.30;;;1.80;99.90;;;;;;10361533;28;20184;-70
2023/01/27 02:40:13;;;;;;;23.60;14.07;;;1.80;99.90;;;;;;10348041;28;20202;-70
2023/01/27 02:45:14;;;;;;;24.57;14.63;;;1.80;99.90;;;;;;10355649;28;20196;-70
2023/01/27 02:50:15;;;;;;;26.40;15.60;;;1.80;99.90;;;;;;10355365;28;20231;-69
2023/01/27 02:55:16;;;;;;;27.17;15.40;;;1.80;99.90;;;;;;10347856;28;20189;-69
2023/01/27 03:00:17;;;;;;;25.13;14.43;;;1.70;99.90;;;;;;10367200;28;20640;-70
2023/01/27 03:05:17;;;;;;;25.17;14.27;;;1.70;99.90;;;;;;10354239;28;20190;-69
2023/01/27 03:10:18;;;;;;;29.70;15.33;;;1.70;99.90;;;;;;10352689;28;20212;-69
2023/01/27 03:20:46;;;;;;;25.27;14.90;;;1.70;99.90;;;;;;10350870;28;20213;-69
2023/01/27 03:25:47;;;;;;;25.67;14.17;;;1.70;99.90;;;;;;10350308;28;20236;-69
2023/01/27 03:30:48;;;;;;;26.60;14.70;;;1.70;99.90;;;;;;10349473;28;20222;-70
2023/01/27 03:35:48;;;;;;;25.83;14.37;;;1.70;99.90;;;;;;10345500;28;20218;-70
2023/01/27 03:46:17;;;;;;;24.77;14.03;;;1.70;99.90;;;;;;10353778;28;20221;-70
2023/01/27 03:51:21;;;;;;;23.57;13.73;;;1.70;99.90;;;;;;10346066;28;20722;-70
2023/01/27 03:56:22;;;;;;;24.13;13.57;;;1.80;99.90;;;;;;10334344;28;20221;-69
2023/01/27 04:01:23;;;;;;;25.20;13.57;;;1.80;99.90;;;;;;10337140;28;20221;-70
2023/01/27 04:11:54;;;;;;;25.63;12.70;;;1.80;99.90;;;;;;10353009;28;20225;-70
2023/01/27 04:17:06;;;;;;;23.57;12.97;;;1.80;99.90;;;;;;10349638;28;20243;-70
2023/01/27 04:22:10;;;;;;;25.70;14.07;;;1.80;99.90;;;;;;10345504;28;20354;-71
2023/01/27 04:27:12;;;;;;;25.53;13.40;;;1.80;99.90;;;;;;10333701;28;20221;-70
2023/01/27 04:32:14;;;;;;;25.43;12.90;;;1.80;99.90;;;;;;10343787;28;20237;-70
2023/01/27 04:37:14;;;;;;;23.33;12.23;;;1.90;99.90;;;;;;10351259;28;20377;-70
2023/01/27 04:42:15;;;;;;;21.67;12.57;;;1.90;99.90;;;;;;10350074;28;20708;-70
2023/01/27 04:47:15;;;;;;;22.27;12.53;;;1.90;99.90;;;;;;10333734;28;20234;-70
2023/01/27 04:52:16;;;;;;;24.27;13.03;;;1.90;99.90;;;;;;10341214;28;20239;-70
2023/01/27 04:57:16;;;;;;;24.23;13.20;;;1.90;99.90;;;;;;10340033;28;20236;-70
2023/01/27 05:02:17;;;;;;;20.70;11.80;;;1.90;99.90;;;;;;10350838;28;20360;-70
2023/01/27 05:07:17;;;;;;;19.10;11.97;;;2.00;99.90;;;;;;10345628;28;20564;-69
2023/01/27 05:12:18;;;;;;;18.33;10.83;;;2.00;99.90;;;;;;10357763;28;20638;-69
2023/01/27 05:17:19;;;;;;;19.67;11.00;;;2.00;99.90;;;;;;10345793;28;20217;-69
2023/01/27 05:22:19;;;;;;;21.00;11.67;;;2.00;99.90;;;;;;10350097;28;20273;-69
2023/01/27 05:27:20;;;;;;;18.87;10.60;;;2.00;99.90;;;;;;10325809;28;20238;-69
2023/01/27 05:32:20;;;;;;;16.53;10.17;;;2.00;99.90;;;;;;10350160;28;20221;-69
2023/01/27 05:37:47;;;;;;;18.97;10.93;;;2.00;99.90;;;;;;10347050;28;20214;-71
2023/01/27 05:42:50;;;;;;;18.10;10.90;;;2.00;99.90;;;;;;10345637;28;20252;-69
2023/01/27 05:47:52;;;;;;;16.80;9.77;;;2.00;99.90;;;;;;10348040;28;20241;-69
2023/01/27 05:52:53;;;;;;;16.63;10.00;;;2.00;99.90;;;;;;10335616;28;20863;-69
2023/01/27 05:57:53;;;;;;;16.33;10.07;;;2.00;99.90;;;;;;10354685;28;20308;-69
2023/01/27 06:02:54;;;;;;;15.93;9.80;;;2.00;99.90;;;;;;10351899;28;20264;-69
2023/01/27 06:07:54;;;;;;;17.70;10.30;;;1.90;99.90;;;;;;10362212;28;20272;-70
2023/01/27 06:12:55;;;;;;;17.07;9.37;;;2.00;99.90;;;;;;10353818;28;20229;-70
2023/01/27 06:17:55;;;;;;;15.43;9.70;;;2.00;99.90;;;;;;10357083;28;20228;-70
2023/01/27 06:22:56;;;;;;;15.03;9.90;;;2.00;99.90;;;;;;10358692;28;20217;-70
2023/01/27 06:27:57;;;;;;;15.70;9.47;;;2.00;99.90;;;;;;10348584;28;20234;-70
2023/01/27 06:32:57;;;;;;;15.13;9.20;;;2.00;99.90;;;;;;10355833;28;20267;-70
2023/01/27 06:37:58;;;;;;;15.23;9.33;;;2.00;99.90;;;;;;10355624;28;20317;-69
2023/01/27 06:42:59;;;;;;;14.90;9.37;;;2.00;99.90;;;;;;10353426;28;20301;-70
2023/01/27 06:48:00;;;;;;;16.00;8.97;;;2.00;99.90;;;;;;10350044;28;20859;-70
2023/01/27 06:53:04;;;;;;;14.80;8.03;;;2.00;99.90;;;;;;10358195;28;20247;-70
2023/01/27 06:58:04;;;;;;;15.67;8.50;;;2.00;99.90;;;;;;10348911;28;20368;-70
2023/01/27 07:03:05;;;;;;;13.43;8.70;;;2.00;99.90;;;;;;10360202;28;20339;-70
2023/01/27 07:08:06;;;;;;;14.73;9.30;;;2.00;99.90;;;;;;10347116;28;20225;-70
2023/01/27 07:13:09;;;;;;;15.90;9.10;;;2.00;99.90;;;;;;10347638;28;20673;-70
2023/01/27 07:18:12;;;;;;;18.70;9.03;;;2.10;99.90;;;;;;10356179;28;20308;-70
2023/01/27 07:23:13;;;;;;;15.13;8.33;;;2.10;99.90;;;;;;10345961;28;20309;-69
2023/01/27 07:28:13;;;;;;;16.53;9.43;;;2.10;99.90;;;;;;10352652;28;20226;-69
2023/01/27 07:33:14;;;;;;;13.37;7.97;;;2.20;99.90;;;;;;10345698;28;20300;-70
2023/01/27 07:38:15;;;;;;;15.63;9.23;;;2.10;99.90;;;;;;10353490;28;20229;-71
2023/01/27 07:43:15;;;;;;;14.90;8.87;;;2.20;99.90;;;;;;10355103;28;20236;-70
2023/01/27 07:48:16;;;;;;;14.53;8.73;;;2.20;99.90;;;;;;10345275;28;20595;-70
2023/01/27 07:53:16;;;;;;;17.00;9.10;;;2.30;99.90;;;;;;10335012;28;20228;-68
2023/01/27 07:58:17;;;;;;;13.33;8.67;;;2.40;99.90;;;;;;10352628;28;20229;-69
2023/01/27 08:03:26;;;;;;;14.47;9.83;;;2.40;99.90;;;;;;10336087;28;20989;-69
2023/01/27 08:08:26;;;;;;;14.90;8.53;;;2.50;99.90;;;;;;10352670;28;20264;-69
2023/01/27 08:13:27;;;;;;;15.27;9.30;;;2.60;99.90;;;;;;10349926;28;20224;-70
2023/01/27 08:18:28;;;;;;;16.97;9.23;;;2.60;99.90;;;;;;10354454;28;20220;-70
2023/01/27 08:23:30;;;;;;;16.63;9.30;;;2.60;99.90;;;;;;10336258;28;20229;-70
2023/01/27 08:28:33;;;;;;;16.10;9.17;;;2.60;99.90;;;;;;10349829;28;20224;-71
2023/01/27 08:33:33;;;;;;;15.67;9.27;;;2.60;99.90;;;;;;10354328;28;20304;-70
2023/01/27 08:38:36;;;;;;;14.30;9.23;;;2.70;99.90;;;;;;10344087;28;20381;-70
2023/01/27 08:43:40;;;;;;;15.73;9.97;;;2.70;99.90;;;;;;10350559;28;20255;-71
2023/01/27 08:48:42;;;;;;;14.73;9.73;;;2.70;99.90;;;;;;10350462;28;20222;-70
2023/01/27 08:53:42;;;;;;;14.03;8.93;;;2.80;99.90;;;;;;10351880;28;20239;-70
2023/01/27 08:58:46;;;;;;;16.00;9.87;;;2.80;99.90;;;;;;10347947;28;20753;-71
2023/01/27 09:03:47;;;;;;;17.43;9.70;;;2.80;99.90;;;;;;10348148;28;20301;-70
2023/01/27 09:09:07;;;;;;;13.90;9.47;;;2.80;99.90;;;;;;10354512;28;20752;-70
2023/01/27 09:14:09;;;;;;;16.93;9.70;;;2.80;99.90;;;;;;10336581;28;20643;-70
2023/01/27 09:19:09;;;;;;;12.67;8.90;;;2.90;99.90;;;;;;10343274;28;20225;-70
2023/01/27 09:24:12;;;;;;;12.83;8.60;;;3.00;99.90;;;;;;10353140;28;20775;-69
2023/01/27 09:29:12;;;;;;;12.53;9.23;;;3.10;99.90;;;;;;10358633;28;20272;-70
2023/01/27 09:34:13;;;;;;;12.23;8.90;;;3.10;99.90;;;;;;10358641;28;20254;-70
2023/01/27 09:39:16;;;;;;;14.50;10.63;;;3.10;99.90;;;;;;10350621;28;20273;-70
2023/01/27 09:44:51;;;;;;;21.00;12.30;;;3.10;99.90;;;;;;10353754;28;20234;-70
2023/01/27 09:50:00;;;;;;;24.03;15.20;;;3.20;99.90;;;;;;10335057;28;20261;-71
2023/01/27 09:55:46;;;;;;;12.87;9.03;;;3.20;99.90;;;;;;10358264;28;20215;-70
2023/01/27 10:00:51;;;;;;;18.80;11.43;;;3.20;99.90;;;;;;10335020;28;20392;-70
2023/01/27 10:06:30;;;;;;;13.83;10.17;;;3.20;99.90;;;;;;10353514;28;20214;-70
2023/01/27 10:11:59;;;;;;;12.43;9.27;;;3.20;99.90;;;;;;10356639;28;20244;-71
2023/01/27 10:17:23;;;;;;;10.47;8.73;;;3.30;99.90;;;;;;10356063;28;20305;-70
2023/01/27 10:22:32;;;;;;;7.90;6.40;;;3.40;99.90;;;;;;10362462;28;20655;-70
2023/01/27 10:27:39;;;;;;;10.57;7.23;;;3.50;99.90;;;;;;10355342;28;20221;-71
2023/01/27 10:32:46;;;;;;;9.47;7.23;;;3.70;99.90;;;;;;10351465;28;20932;-71
2023/01/27 10:37:59;;;;;;;8.67;5.90;;;3.80;99.90;;;;;;10350915;28;20744;-70
2023/01/27 10:43:13;;;;;;;6.80;5.67;;;3.90;99.90;;;;;;10356383;28;20319;-71
2023/01/27 10:48:32;;;;;;;8.10;5.60;;;4.00;99.90;;;;;;10356568;28;20263;-70
2023/01/27 10:53:47;;;;;;;5.87;5.07;;;4.20;99.90;;;;;;10358790;28;20225;-70
2023/01/27 10:59:02;;;;;;;6.50;5.47;;;4.40;99.90;;;;;;10352198;28;20312;-70
2023/01/27 11:04:12;;;;;;;4.73;4.13;;;4.50;99.90;;;;;;10343704;28;20212;-70
2023/01/27 11:09:27;;;;;;;5.07;4.17;;;4.50;99.90;;;;;;10337138;28;20228;-70
2023/01/27 11:14:49;;;;;;;4.37;3.87;;;4.30;99.90;;;;;;10348969;28;20308;-71
2023/01/27 11:20:02;;;;;;;5.20;4.70;;;4.20;99.90;;;;;;10354611;28;20276;-70
2023/01/27 11:25:11;;;;;;;5.27;4.40;;;4.40;99.90;;;;;;10353012;28;20234;-70
2023/01/27 11:30:20;;;;;;;4.50;4.10;;;4.50;99.90;;;;;;10349134;28;20254;-70
2023/01/27 11:35:21;;;;;;;4.93;4.47;;;4.70;99.90;;;;;;10329145;28;20205;-70
2023/01/27 11:40:34;;;;;;;3.53;3.23;;;4.90;99.90;;;;;;10352779;28;20201;-71
2023/01/27 11:45:36;;;;;;;4.70;4.10;;;4.90;99.90;;;;;;10348779;28;20342;-73
2023/01/27 11:50:37;;;;;;;5.33;4.30;;;4.80;99.90;;;;;;10351008;28;20226;-71
2023/01/27 11:55:42;;;;;;;5.60;4.43;;;4.70;99.90;;;;;;10350891;28;20220;-70
2023/01/27 12:01:08;;;;;;;5.27;4.27;;;4.60;99.90;;;;;;10345319;28;20209;-72
2023/01/27 12:06:24;;;;;;;4.00;3.60;;;5.00;99.90;;;;;;10345167;28;20227;-71
2023/01/27 12:11:27;;;;;;;3.60;3.30;;;5.20;99.90;;;;;;10344210;28;20261;-71
2023/01/27 12:16:47;;;;;;;3.50;3.20;;;5.20;99.90;;;;;;10341160;28;20222;-71
2023/01/27 12:21:51;;;;;;;3.50;3.20;;;4.90;99.90;;;;;;10352793;28;20222;-70
2023/01/27 12:26:53;;;;;;;3.70;3.33;;;4.90;99.90;;;;;;10349679;28;20226;-70
2023/01/27 12:31:57;;;;;;;3.20;2.90;;;4.80;99.90;;;;;;10341940;28;20295;-70
2023/01/27 12:36:58;;;;;;;2.90;2.60;;;4.90;99.90;;;;;;10346571;28;20214;-70
2023/01/27 12:41:59;;;;;;;2.57;2.17;;;5.00;99.90;;;;;;10349839;28;20236;-71
2023/01/27 12:47:02;;;;;;;2.17;2.07;;;5.00;99.90;;;;;;10350269;28;20214;-70
2023/01/27 12:52:07;;;;;;;3.47;2.30;;;4.90;99.90;;;;;;10343004;28;20298;-70
2023/01/27 12:57:14;;;;;;;2.10;1.90;;;4.90;99.90;;;;;;10341078;28;20227;-70
2023/01/27 13:02:24;;;;;;;1.80;1.40;;;4.70;99.90;;;;;;10342574;28;20268;-70
2023/01/27 13:07:32;;;;;;;1.77;1.57;;;4.60;99.90;;;;;;10344112;28;20231;-70
2023/01/27 13:12:54;;;;;;;2.43;1.50;;;4.50;99.90;;;;;;10349952;28;20206;-71
2023/01/27 13:17:59;;;;;;;1.80;1.40;;;4.50;99.90;;;;;;10348328;28;20220;-71
2023/01/27 13:23:31;;;;;;;1.50;1.30;;;4.50;99.90;;;;;;10343950;28;20309;-71
2023/01/27 13:28:40;;;;;;;2.07;1.13;;;4.70;99.90;;;;;;10346907;28;20258;-71
2023/01/27 13:33:54;;;;;;;1.33;1.23;;;4.70;99.90;;;;;;10347603;28;20694;-71
2023/01/27 13:39:03;;;;;;;1.30;1.20;;;4.70;99.90;;;;;;10348084;28;20217;-71
2023/01/27 13:44:28;;;;;;;1.30;1.07;;;4.60;99.90;;;;;;10334058;28;20332;-71
2023/01/27 13:49:46;;;;;;;1.77;1.20;;;4.50;99.90;;;;;;10343839;28;20226;-71
2023/01/27 13:54:46;;;;;;;1.00;0.90;;;4.50;99.90;;;;;;10347331;28;20256;-70
2023/01/27 13:59:56;;;;;;;2.33;1.07;;;4.50;99.90;;;;;;10344565;28;20220;-69
2023/01/27 14:05:03;;;;;;;1.20;1.10;;;4.60;99.90;;;;;;10347121;28;20308;-69
2023/01/27 14:10:48;;;;;;;4.53;1.03;;;4.60;99.90;;;;;;10345323;28;20819;-70
2023/01/27 14:16:00;;;;;;;1.80;0.83;;;4.60;99.90;;;;;;10316069;28;20210;-70
2023/01/27 14:21:29;;;;;;;1.40;1.30;;;4.60;99.90;;;;;;10352538;28;20277;-70
2023/01/27 14:26:33;;;;;;;1.60;0.90;;;4.60;99.90;;;;;;10357850;28;20244;-70
2023/01/27 14:32:01;;;;;;;2.23;1.00;;;4.50;99.90;;;;;;10356541;28;20312;-70
2023/01/27 14:37:14;;;;;;;1.97;0.80;;;4.60;99.90;;;;;;10347581;28;20233;-71
2023/01/27 14:42:43;;;;;;;2.57;0.93;;;4.70;99.90;;;;;;10348264;28;20708;-71
2023/01/27 14:47:59;;;;;;;1.37;1.03;;;4.70;99.90;;;;;;10358292;28;20348;-71
2023/01/27 14:53:30;;;;;;;1.50;1.27;;;4.70;99.90;;;;;;10347559;28;20300;-71
2023/01/27 14:58:54;;;;;;;3.73;1.17;;;4.60;99.90;;;;;;10354405;28;20307;-70
2023/01/27 15:04:33;;;;;;;3.23;1.73;;;4.60;99.90;;;;;;10346124;28;20355;-71
2023/01/27 15:10:11;;;;;;;2.60;1.63;;;4.60;99.90;;;;;;10357119;28;20218;-70
2023/01/27 15:15:33;;;;;;;2.93;2.17;;;4.70;99.90;;;;;;10352464;28;20369;-70
2023/01/27 15:20:49;;;;;;;1.20;1.00;;;4.70;99.90;;;;;;10348510;28;20214;-72
2023/01/27 15:25:54;;;;;;;1.67;1.00;;;4.70;99.90;;;;;;10348894;28;20221;-70
2023/01/27 15:31:13;;;;;;;2.13;1.07;;;4.70;99.90;;;;;;10355182;28;20258;-71
2023/01/27 15:36:30;;;;;;;2.73;1.30;;;4.60;99.90;;;;;;10354547;28;20221;-70
2023/01/27 15:41:31;;;;;;;0.63;0.63;;;4.60;99.90;;;;;;10328231;28;20708;-70
2023/01/27 15:46:35;;;;;;;0.90;0.70;;;4.50;99.90;;;;;;10347296;28;20276;-70
2023/01/27 15:51:36;;;;;;;1.70;1.47;;;4.50;99.90;;;;;;10345144;28;20720;-71
2023/01/27 15:56:42;;;;;;;0.60;0.60;;;4.40;99.90;;;;;;10330470;28;20701;-71
2023/01/27 16:01:46;;;;;;;0.80;0.80;;;4.40;99.90;;;;;;10349046;28;20280;-70
2023/01/27 16:07:01;;;;;;;0.50;0.50;;;4.40;99.90;;;;;;10339176;28;20221;-70
2023/01/27 16:12:22;;;;;;;0.90;0.80;;;4.30;99.90;;;;;;10351162;28;20608;-71
2023/01/27 16:17:25;;;;;;;1.17;1.07;;;4.30;99.90;;;;;;10346022;28;20229;-70
2023/01/27 16:22:27;;;;;;;1.57;0.80;;;4.30;99.90;;;;;;10351034;28;20308;-69
2023/01/27 16:27:58;;;;;;;2.10;0.90;;;4.30;99.90;;;;;;10346071;28;20240;-71
2023/01/27 16:33:14;;;;;;;1.37;1.00;;;4.20;99.90;;;;;;10344984;28;20225;-70
2023/01/27 16:38:21;;;;;;;3.10;1.10;;;4.20;99.90;;;;;;10356183;28;20220;-70
2023/01/27 16:43:30;;;;;;;1.63;1.53;;;4.30;99.90;;;;;;10353085;28;20233;-70
2023/01/27 16:48:46;;;;;;;3.00;1.03;;;4.20;99.90;;;;;;10346494;28;20233;-71
2023/01/27 16:53:48;;;;;;;1.90;1.20;;;4.20;99.90;;;;;;10354812;28;20220;-69
2023/01/27 16:58:50;;;;;;;1.50;1.20;;;4.20;99.90;;;;;;10348000;28;20221;-70
2023/01/27 17:03:55;;;;;;;1.77;1.60;;;4.20;99.90;;;;;;10353491;28;20230;-71
2023/01/27 17:08:56;;;;;;;1.67;1.53;;;4.20;99.90;;;;;;10339375;28;20236;-71
2023/01/27 17:14:02;;;;;;;1.60;1.50;;;4.20;99.90;;;;;;10348816;28;20223;-70
2023/01/27 17:19:21;;;;;;;1.60;1.13;;;4.20;99.90;;;;;;10351378;28;20689;-70
2023/01/27 17:24:35;;;;;;;1.80;1.60;;;4.20;99.90;;;;;;10343101;28;20268;-70
2023/01/27 17:29:45;;;;;;;2.00;1.77;;;4.20;99.90;;;;;;10345772;28;20625;-71
2023/01/27 17:34:49;;;;;;;1.60;1.50;;;4.20;99.90;;;;;;10346023;28;20229;-71
2023/01/27 17:40:02;;;;;;;1.60;1.50;;;4.20;99.90;;;;;;10347140;28;20214;-71
2023/01/27 17:45:25;;;;;;;1.87;1.70;;;4.20;99.90;;;;;;10351782;28;20217;-71
2023/01/27 17:50:35;;;;;;;1.90;1.80;;;4.20;99.90;;;;;;10348326;28;20232;-70
2023/01/27 17:55:36;;;;;;;1.93;1.83;;;4.20;99.90;;;;;;10344216;28;20280;-71
2023/01/27 18:00:39;;;;;;;2.10;1.90;;;4.20;99.90;;;;;;10354912;28;20218;-69
2023/01/27 18:05:42;;;;;;;1.70;1.60;;;4.20;99.90;;;;;;10353984;28;20610;-70
2023/01/27 18:10:46;;;;;;;1.90;1.80;;;4.20;99.90;;;;;;10343581;28;20225;-69
2023/01/27 18:15:48;;;;;;;2.17;1.97;;;4.20;99.90;;;;;;10352554;28;20587;-70
2023/01/27 18:20:56;;;;;;;2.43;2.03;;;4.20;99.90;;;;;;10353943;28;20220;-70
2023/01/27 18:26:25;;;;;;;1.93;1.83;;;4.20;99.90;;;;;;10352734;28;20224;-67
2023/01/27 18:31:29;;;;;;;2.67;1.90;;;4.20;99.90;;;;;;10361265;28;20328;-68
2023/01/27 18:36:34;;;;;;;3.07;2.47;;;4.20;99.90;;;;;;10350651;28;20266;-68
2023/01/27 18:41:37;;;;;;;2.97;2.67;;;4.20;99.90;;;;;;10358785;28;20231;-67
2023/01/27 18:46:37;;;;;;;3.60;2.50;;;4.20;99.90;;;;;;10339710;28;20228;-68
2023/01/27 18:51:38;;;;;;;3.60;3.23;;;4.20;99.90;;;;;;10353438;28;20233;-68
2023/01/27 18:56:38;;;;;;;3.40;2.97;;;4.20;99.90;;;;;;10350320;28;20261;-67
2023/01/27 19:01:39;;;;;;;3.17;2.90;;;4.20;99.90;;;;;;10351133;28;20221;-68
2023/01/27 19:06:39;;;;;;;3.60;3.30;;;4.20;99.90;;;;;;10350446;28;20583;-69
2023/01/27 19:11:40;;;;;;;3.93;3.53;;;4.20;99.90;;;;;;10357594;28;20298;-67
2023/01/27 19:16:41;;;;;;;5.00;4.40;;;4.20;99.90;;;;;;10351481;28;20221;-68
2023/01/27 19:21:41;;;;;;;6.13;4.50;;;4.20;99.90;;;;;;10355682;28;20232;-68
2023/01/27 19:26:43;;;;;;;4.87;4.30;;;4.20;99.90;;;;;;10349992;28;20217;-68
2023/01/27 19:31:43;;;;;;;4.73;4.13;;;4.20;99.90;;;;;;10354762;28;20225;-68
2023/01/27 19:36:44;;;;;;;4.40;4.00;;;4.20;99.90;;;;;;10350497;28;20304;-68
2023/01/27 19:41:45;;;;;;;4.57;4.17;;;4.10;99.90;;;;;;10354209;28;20252;-68
2023/01/27 19:46:46;;;;;;;4.20;3.90;;;4.10;99.90;;;;;;10349344;28;20301;-68
2023/01/27 19:51:46;;;;;;;4.47;3.80;;;4.10;99.90;;;;;;10350345;28;20228;-68
2023/01/27 19:56:47;;;;;;;4.57;4.10;;;4.10;99.90;;;;;;10357275;28;20224;-68
2023/01/27 20:01:47;;;;;;;5.20;4.30;;;4.10;99.90;;;;;;10349282;28;20302;-68
2023/01/27 20:06:48;;;;;;;5.97;4.83;;;4.10;99.90;;;;;;10348333;28;20238;-68
2023/01/27 20:11:49;;;;;;;5.23;4.50;;;4.00;99.90;;;;;;10348131;28;20226;-73
2023/01/27 20:16:49;;;;;;;4.40;4.00;;;4.00;99.90;;;;;;10347184;28;20644;-67
2023/01/27 20:21:50;;;;;;;5.57;4.30;;;4.00;99.90;;;;;;10348022;28;20230;-67
2023/01/27 20:26:51;;;;;;;4.30;3.90;;;4.00;99.90;;;;;;10342827;28;20224;-68
2023/01/27 20:31:51;;;;;;;4.90;3.90;;;4.00;99.90;;;;;;10359399;28;20349;-67
2023/01/27 20:36:52;;;;;;;5.80;4.33;;;4.00;99.90;;;;;;10354138;28;20218;-67
2023/01/27 20:41:52;;;;;;;4.93;4.43;;;4.00;99.90;;;;;;10348633;28;20302;-67
2023/01/27 20:46:53;;;;;;;5.40;4.63;;;4.00;99.90;;;;;;10347042;28;20225;-67
2023/01/27 20:51:54;;;;;;;5.87;4.50;;;3.90;99.90;;;;;;10347877;28;20264;-69
2023/01/27 20:56:54;;;;;;;4.80;4.33;;;3.90;99.90;;;;;;10345375;28;20218;-68
2023/01/27 21:01:55;;;;;;;5.83;4.87;;;3.90;99.90;;;;;;10330955;28;20267;-68
2023/01/27 21:06:55;;;;;;;5.20;4.70;;;3.90;99.90;;;;;;10341453;28;20284;-68
2023/01/27 21:11:56;;;;;;;5.37;4.83;;;3.90;99.90;;;;;;10353693;28;20605;-67
2023/01/27 21:16:57;;;;;;;5.47;4.33;;;3.80;99.90;;;;;;10348458;28;20809;-67
2023/01/27 21:21:57;;;;;;;6.07;4.77;;;3.90;99.90;;;;;;10355305;28;20222;-69
2023/01/27 21:26:58;;;;;;;6.63;4.80;;;3.90;99.90;;;;;;10349512;28;20283;-68
2023/01/27 21:31:59;;;;;;;4.90;4.33;;;3.80;99.90;;;;;;10357022;28;20316;-67
2023/01/27 21:36:59;;;;;;;5.30;4.10;;;3.80;99.90;;;;;;10353213;28;20221;-68
2023/01/27 21:47:05;;;;;;;4.00;3.60;;;3.80;99.90;;;;;;10359808;28;20776;-68
2023/01/27 21:52:09;;;;;;;4.10;3.70;;;3.80;99.90;;;;;;10356804;28;20230;-68
2023/01/27 21:57:09;;;;;;;3.73;3.33;;;3.80;99.90;;;;;;10357770;28;20252;-68
2023/01/27 22:02:11;;;;;;;3.53;3.20;;;3.80;99.90;;;;;;10356684;28;20610;-68
2023/01/27 22:07:13;;;;;;;3.60;3.30;;;3.80;99.90;;;;;;10340058;28;20222;-67
2023/01/27 22:12:15;;;;;;;3.10;2.83;;;3.80;99.90;;;;;;10348990;28;20249;-67
2023/01/27 22:17:16;;;;;;;3.20;2.90;;;3.80;99.90;;;;;;10347006;28;20245;-68
2023/01/27 22:22:16;;;;;;;3.67;3.07;;;3.70;99.90;;;;;;10348705;28;20301;-67
2023/01/27 22:27:17;;;;;;;3.57;3.27;;;3.70;99.90;;;;;;10356648;28;20220;-68
2023/01/27 22:32:17;;;;;;;3.40;3.10;;;3.70;99.90;;;;;;10352013;28;20229;-68
2023/01/27 22:37:18;;;;;;;2.90;2.70;;;3.70;99.90;;;;;;10364262;28;20624;-67
2023/01/27 22:42:18;;;;;;;3.00;2.70;;;3.70;99.90;;;;;;10347469;28;20233;-68
2023/01/27 22:47:19;;;;;;;3.27;2.97;;;3.70;99.90;;;;;;10347928;28;20244;-68
2023/01/27 22:52:19;;;;;;;2.73;2.53;;;3.70;99.90;;;;;;10337967;28;20232;-68
2023/01/27 22:57:20;;;;;;;2.80;2.60;;;3.70;99.90;;;;;;10354787;28;20758;-68
2023/01/27 23:02:21;;;;;;;3.00;2.70;;;3.70;99.90;;;;;;10347639;28;20226;-68
2023/01/27 23:07:23;;;;;;;4.50;3.40;;;3.70;99.90;;;;;;10361437;28;20234;-69
2023/01/27 23:12:23;;;;;;;2.77;2.53;;;3.70;99.90;;;;;;10338273;28;20241;-68
2023/01/27 23:17:26;;;;;;;3.37;2.53;;;3.70;99.90;;;;;;10338158;28;20525;-67
2023/01/27 23:22:27;;;;;;;3.30;2.83;;;3.70;99.90;;;;;;10352393;28;20834;-68
2023/01/27 23:27:27;;;;;;;3.13;2.70;;;3.70;99.90;;;;;;10347434;28;20218;-68
2023/01/27 23:32:28;;;;;;;3.73;3.10;;;3.70;99.90;;;;;;10351297;28;20282;-68
2023/01/27 23:37:28;;;;;;;3.87;3.00;;;3.60;99.90;;;;;;10352701;28;20214;-67
2023/01/27 23:42:29;;;;;;;5.50;3.90;;;3.60;99.90;;;;;;10347293;28;20591;-69
2023/01/27 23:47:29;;;;;;;4.43;3.53;;;3.60;99.90;;;;;;10351343;28;20236;-69
2023/01/27 23:52:34;;;;;;;6.77;3.93;;;3.60;99.90;;;;;;10353546;28;20220;-68
2023/01/27 23:57:34;;;;;;;3.50;3.20;;;3.60;99.90;;;;;;10351273;28;20225;-68
